sensor_id;sensor_type;location;lat;lon;timestamp;pressure;altitude;pressure_sealevel;temperature;humidity
76694;BME280;69667;52.136;5.424;2023-11-19T00:00:27;100842.16;;;12.15;100.00
76694;BME280;69667;52.136;5.424;2023-11-19T00:02:55;100833.91;;;12.17;100.00
76694;BME280;69667;52.136;5.424;2023-11-19T00:05:23;100833.91;;;12.17;100.00
76694;BME280;69667;52.136;5.424;2023-11-19T00:07:51;100838.50;;;12.16;100.00
76694;BME280;69667;52.136;5.424;2023-11-19T00:10:20;100830.63;;;12.13;100.00
76694;BME280;69667;52.136;5.424;2023-11-19T00:12:49;100830.72;;;12.12;100.00
76694;BME280;69667;52.136;5.424;2023-11-19T00:15:18;100815.22;;;12.14;100.00
76694;BME280;69667;52.136;5.424;2023-11-19T00:17:47;100830.84;;;12.10;100.00
76694;BME280;69667;52.136;5.424;2023-11-19T00:20:20;100830.25;;;12.07;100.00
76694;BME280;69667;52.136;5.424;2023-11-19T00:22:51;100832.13;;;12.06;100.00
76694;BME280;69667;52.136;5.424;2023-11-19T00:25:20;100835.06;;;12.03;100.00
76694;BME280;69667;52.136;5.424;2023-11-19T00:27:50;100836.78;;;12.04;100.00
76694;BME280;69667;52.136;5.424;2023-11-19T00:30:21;100815.13;;;12.04;100.00
76694;BME280;69667;52.136;5.424;2023-11-19T00:32:49;100818.94;;;12.02;100.00
76694;BME280;69667;52.136;5.424;2023-11-19T00:35:17;100811.94;;;11.99;100.00
76694;BME280;69667;52.136;5.424;2023-11-19T00:37:45;100802.34;;;11.95;100.00
76694;BME280;69667;52.136;5.424;2023-11-19T00:40:15;100811.34;;;11.96;100.00
76694;BME280;69667;52.136;5.424;2023-11-19T00:42:46;100811.94;;;11.99;100.00
76694;BME280;69667;52.136;5.424;2023-11-19T00:45:15;100803.97;;;11.98;100.00
76694;BME280;69667;52.136;5.424;2023-11-19T00:47:43;100804.56;;;12.01;100.00
76694;BME280;69667;52.136;5.424;2023-11-19T00:50:11;100801.75;;;12.03;100.00
76694;BME280;69667;52.136;5.424;2023-11-19T00:52:40;100803.56;;;12.02;100.00
76694;BME280;69667;52.136;5.424;2023-11-19T00:55:09;100797.28;;;12.02;100.00
76694;BME280;69667;52.136;5.424;2023-11-19T00:57:40;100777.88;;;11.97;100.00
76694;BME280;69667;52.136;5.424;2023-11-19T01:00:09;100797.56;;;11.99;100.00
76694;BME280;69667;52.136;5.424;2023-11-19T01:02:47;100799.16;;;12.01;100.00
76694;BME280;69667;52.136;5.424;2023-11-19T01:05:20;100799.28;;;12.00;100.00
76694;BME280;69667;52.136;5.424;2023-11-19T01:07:50;100794.84;;;11.99;100.00
76694;BME280;69667;52.136;5.424;2023-11-19T01:10:22;100794.09;;;11.97;100.00
76694;BME280;69667;52.136;5.424;2023-11-19T01:12:50;100793.88;;;12.00;100.00
76694;BME280;69667;52.136;5.424;2023-11-19T01:15:19;100812.56;;;12.03;100.00
76694;BME280;69667;52.136;5.424;2023-11-19T01:17:48;100802.69;;;12.02;100.00
76694;BME280;69667;52.136;5.424;2023-11-19T01:20:19;100791.88;;;12.02;100.00
76694;BME280;69667;52.136;5.424;2023-11-19T01:22:49;100772.94;;;12.02;100.00
76694;BME280;69667;52.136;5.424;2023-11-19T01:25:18;100771.50;;;11.98;100.00
76694;BME280;69667;52.136;5.424;2023-11-19T01:27:46;100782.31;;;11.98;100.00
76694;BME280;69667;52.136;5.424;2023-11-19T01:30:15;100777.03;;;11.96;100.00
76694;BME280;69667;52.136;5.424;2023-11-19T01:32:43;100765.22;;;11.97;100.00
76694;BME280;69667;52.136;5.424;2023-11-19T01:35:11;100772.59;;;11.95;100.00
76694;BME280;69667;52.136;5.424;2023-11-19T01:37:40;100772.72;;;11.94;100.00
76694;BME280;69667;52.136;5.424;2023-11-19T01:40:09;100771.50;;;11.98;100.00
76694;BME280;69667;52.136;5.424;2023-11-19T01:42:39;100775.91;;;11.99;100.00
76694;BME280;69667;52.136;5.424;2023-11-19T01:45:08;100772.25;;;12.00;100.00
76694;BME280;69667;52.136;5.424;2023-11-19T01:47:38;100771.25;;;12.01;100.00
76694;BME280;69667;52.136;5.424;2023-11-19T01:50:07;100783.75;;;12.02;100.00
76694;BME280;69667;52.136;5.424;2023-11-19T01:52:37;100766.09;;;11.98;100.00
76694;BME280;69667;52.136;5.424;2023-11-19T01:55:07;100780.56;;;11.97;100.00
76694;BME280;69667;52.136;5.424;2023-11-19T01:57:37;100786.13;;;11.95;100.00
76694;BME280;69667;52.136;5.424;2023-11-19T02:00:09;100774.19;;;11.98;100.00
76694;BME280;69667;52.136;5.424;2023-11-19T02:02:43;100779.63;;;11.98;100.00
76694;BME280;69667;52.136;5.424;2023-11-19T02:05:14;100773.47;;;11.96;100.00
76694;BME280;69667;52.136;5.424;2023-11-19T02:07:42;100766.56;;;11.92;100.00
76694;BME280;69667;52.136;5.424;2023-11-19T02:10:10;100772.50;;;11.86;100.00
76694;BME280;69667;52.136;5.424;2023-11-19T02:12:42;100765.59;;;11.82;100.00
76694;BME280;69667;52.136;5.424;2023-11-19T02:15:10;100766.84;;;11.78;100.00
76694;BME280;69667;52.136;5.424;2023-11-19T02:17:39;100764.88;;;11.69;100.00
76694;BME280;69667;52.136;5.424;2023-11-19T02:20:08;100782.47;;;11.63;100.00
76694;BME280;69667;52.136;5.424;2023-11-19T02:22:39;100785.50;;;11.59;100.00
76694;BME280;69667;52.136;5.424;2023-11-19T02:25:12;100782.09;;;11.57;100.00
76694;BME280;69667;52.136;5.424;2023-11-19T02:27:56;100787.97;;;11.50;100.00
76694;BME280;69667;52.136;5.424;2023-11-19T02:30:25;100785.50;;;11.47;100.00
76694;BME280;69667;52.136;5.424;2023-11-19T02:32:56;100796.69;;;11.43;100.00
76694;BME280;69667;52.136;5.424;2023-11-19T02:35:26;100794.22;;;11.40;100.00
76694;BME280;69667;52.136;5.424;2023-11-19T02:37:54;100801.75;;;11.36;100.00
76694;BME280;69667;52.136;5.424;2023-11-19T02:40:23;100794.09;;;11.30;100.00
76694;BME280;69667;52.136;5.424;2023-11-19T02:42:53;100789.81;;;11.28;100.00
76694;BME280;69667;52.136;5.424;2023-11-19T02:45:24;100786.25;;;11.27;100.00
76694;BME280;69667;52.136;5.424;2023-11-19T02:47:53;100777.50;;;11.24;100.00
76694;BME280;69667;52.136;5.424;2023-11-19T02:50:22;100776.88;;;11.20;100.00
76694;BME280;69667;52.136;5.424;2023-11-19T02:52:56;100770.53;;;11.21;100.00
76694;BME280;69667;52.136;5.424;2023-11-19T02:55:24;100777.88;;;11.19;100.00
76694;BME280;69667;52.136;5.424;2023-11-19T02:57:56;100769.91;;;11.18;100.00
76694;BME280;69667;52.136;5.424;2023-11-19T03:00:27;100783.28;;;11.19;100.00
76694;BME280;69667;52.136;5.424;2023-11-19T03:03:03;100779.59;;;11.20;100.00
76694;BME280;69667;52.136;5.424;2023-11-19T03:05:48;100774.81;;;11.13;100.00
76694;BME280;69667;52.136;5.424;2023-11-19T03:08:16;100783.38;;;11.07;100.00
76694;BME280;69667;52.136;5.424;2023-11-19T03:10:47;100772.19;;;11.00;100.00
76694;BME280;69667;52.136;5.424;2023-11-19T03:13:16;100780.03;;;10.92;100.00
76694;BME280;69667;52.136;5.424;2023-11-19T03:15:45;100775.84;;;10.88;100.00
76694;BME280;69667;52.136;5.424;2023-11-19T03:18:13;100778.78;;;10.85;100.00
76694;BME280;69667;52.136;5.424;2023-11-19T03:20:42;100781.47;;;10.85;100.00
76694;BME280;69667;52.136;5.424;2023-11-19T03:23:10;100778.28;;;10.80;100.00
76694;BME280;69667;52.136;5.424;2023-11-19T03:25:38;100783.16;;;10.75;100.00
76694;BME280;69667;52.136;5.424;2023-11-19T03:28:07;100776.50;;;10.68;100.00
76694;BME280;69667;52.136;5.424;2023-11-19T03:30:35;100776.63;;;10.67;100.00
76694;BME280;69667;52.136;5.424;2023-11-19T03:33:03;100776.00;;;10.63;100.00
76694;BME280;69667;52.136;5.424;2023-11-19T03:35:32;100767.19;;;10.61;100.00
76694;BME280;69667;52.136;5.424;2023-11-19T03:38:00;100764.94;;;10.55;100.00
76694;BME280;69667;52.136;5.424;2023-11-19T03:40:29;100767.75;;;10.54;100.00
76694;BME280;69667;52.136;5.424;2023-11-19T03:42:57;100760.66;;;10.53;100.00
76694;BME280;69667;52.136;5.424;2023-11-19T03:45:26;100757.09;;;10.52;100.00
76694;BME280;69667;52.136;5.424;2023-11-19T03:47:54;100755.59;;;10.48;100.00
76694;BME280;69667;52.136;5.424;2023-11-19T03:50:23;100758.75;;;10.42;100.00
76694;BME280;69667;52.136;5.424;2023-11-19T03:52:51;100768.69;;;10.42;100.00
76694;BME280;69667;52.136;5.424;2023-11-19T03:55:20;100770.75;;;10.38;100.00
76694;BME280;69667;52.136;5.424;2023-11-19T03:57:48;100776.50;;;10.34;100.00
76694;BME280;69667;52.136;5.424;2023-11-19T04:00:17;100780.94;;;10.35;100.00
76694;BME280;69667;52.136;5.424;2023-11-19T04:02:45;100781.03;;;10.33;100.00
76694;BME280;69667;52.136;5.424;2023-11-19T04:05:14;100783.25;;;10.28;100.00
76694;BME280;69667;52.136;5.424;2023-11-19T04:07:42;100791.53;;;10.25;100.00
76694;BME280;69667;52.136;5.424;2023-11-19T04:10:11;100787.38;;;10.21;100.00
76694;BME280;69667;52.136;5.424;2023-11-19T04:12:39;100785.63;;;10.20;100.00
76694;BME280;69667;52.136;5.424;2023-11-19T04:15:08;100786.63;;;10.19;100.00
76694;BME280;69667;52.136;5.424;2023-11-19T04:17:36;100791.13;;;10.18;100.00
76694;BME280;69667;52.136;5.424;2023-11-19T04:20:05;100792.25;;;10.16;100.00
76694;BME280;69667;52.136;5.424;2023-11-19T04:22:38;100799.34;;;10.17;100.00
76694;BME280;69667;52.136;5.424;2023-11-19T04:25:06;100795.69;;;10.18;100.00
76694;BME280;69667;52.136;5.424;2023-11-19T04:27:35;100802.69;;;10.20;100.00
76694;BME280;69667;52.136;5.424;2023-11-19T04:30:03;100796.53;;;10.18;100.00
76694;BME280;69667;52.136;5.424;2023-11-19T04:32:32;100787.69;;;10.16;100.00
76694;BME280;69667;52.136;5.424;2023-11-19T04:35:00;100788.56;;;10.17;100.00
76694;BME280;69667;52.136;5.424;2023-11-19T04:37:28;100792.13;;;10.17;100.00
76694;BME280;69667;52.136;5.424;2023-11-19T04:39:57;100788.91;;;10.12;100.00
76694;BME280;69667;52.136;5.424;2023-11-19T04:42:27;100790.84;;;10.10;100.00
76694;BME280;69667;52.136;5.424;2023-11-19T04:44:56;100796.25;;;10.10;100.00
76694;BME280;69667;52.136;5.424;2023-11-19T04:47:25;100799.94;;;10.09;100.00
76694;BME280;69667;52.136;5.424;2023-11-19T04:49:53;100799.38;;;10.04;100.00
76694;BME280;69667;52.136;5.424;2023-11-19T04:52:21;100802.28;;;10.01;100.00
76694;BME280;69667;52.136;5.424;2023-11-19T04:54:50;100786.97;;;10.02;100.00
76694;BME280;69667;52.136;5.424;2023-11-19T04:57:18;100784.50;;;9.99;100.00
76694;BME280;69667;52.136;5.424;2023-11-19T04:59:46;100789.03;;;9.98;100.00
76694;BME280;69667;52.136;5.424;2023-11-19T05:02:15;100785.69;;;9.95;100.00
76694;BME280;69667;52.136;5.424;2023-11-19T05:04:43;100788.50;;;9.93;100.00
76694;BME280;69667;52.136;5.424;2023-11-19T05:07:13;100793.38;;;9.88;100.00
76694;BME280;69667;52.136;5.424;2023-11-19T05:09:41;100801.22;;;9.91;100.00
76694;BME280;69667;52.136;5.424;2023-11-19T05:12:10;100800.63;;;9.88;100.00
76694;BME280;69667;52.136;5.424;2023-11-19T05:14:39;100806.97;;;9.87;100.00
76694;BME280;69667;52.136;5.424;2023-11-19T05:17:08;100809.66;;;9.87;100.00
76694;BME280;69667;52.136;5.424;2023-11-19T05:19:36;100815.34;;;9.95;100.00
76694;BME280;69667;52.136;5.424;2023-11-19T05:22:04;100805.66;;;9.92;100.00
76694;BME280;69667;52.136;5.424;2023-11-19T05:24:33;100793.59;;;9.85;100.00
76694;BME280;69667;52.136;5.424;2023-11-19T05:27:03;100796.53;;;9.82;100.00
76694;BME280;69667;52.136;5.424;2023-11-19T05:29:31;100790.25;;;9.82;100.00
76694;BME280;69667;52.136;5.424;2023-11-19T05:31:59;100803.97;;;9.79;100.00
76694;BME280;69667;52.136;5.424;2023-11-19T05:34:28;100804.19;;;9.76;100.00
76694;BME280;69667;52.136;5.424;2023-11-19T05:36:56;100814.97;;;9.76;100.00
76694;BME280;69667;52.136;5.424;2023-11-19T05:39:25;100798.16;;;9.72;100.00
76694;BME280;69667;52.136;5.424;2023-11-19T05:41:53;100800.84;;;9.72;100.00
76694;BME280;69667;52.136;5.424;2023-11-19T05:44:21;100802.91;;;9.69;100.00
76694;BME280;69667;52.136;5.424;2023-11-19T05:46:49;100805.72;;;9.67;100.00
76694;BME280;69667;52.136;5.424;2023-11-19T05:49:18;100806.69;;;9.66;100.00
76694;BME280;69667;52.136;5.424;2023-11-19T05:51:46;100799.56;;;9.65;100.00
76694;BME280;69667;52.136;5.424;2023-11-19T05:54:14;100804.09;;;9.65;100.00
76694;BME280;69667;52.136;5.424;2023-11-19T05:56:48;100807.66;;;9.65;100.00
76694;BME280;69667;52.136;5.424;2023-11-19T05:59:16;100810.34;;;9.65;100.00
76694;BME280;69667;52.136;5.424;2023-11-19T06:01:44;100804.09;;;9.65;100.00
76694;BME280;69667;52.136;5.424;2023-11-19T06:04:13;100807.53;;;9.67;100.00
76694;BME280;69667;52.136;5.424;2023-11-19T06:06:42;100803.13;;;9.66;100.00
76694;BME280;69667;52.136;5.424;2023-11-19T06:09:10;100799.34;;;9.68;100.00
76694;BME280;69667;52.136;5.424;2023-11-19T06:11:40;100804.09;;;9.65;100.00
76694;BME280;69667;52.136;5.424;2023-11-19T06:14:09;100797.88;;;9.64;100.00
76694;BME280;69667;52.136;5.424;2023-11-19T06:16:37;100795.47;;;9.60;100.00
76694;BME280;69667;52.136;5.424;2023-11-19T06:19:07;100801.63;;;9.62;100.00
76694;BME280;69667;52.136;5.424;2023-11-19T06:21:37;100804.22;;;9.63;100.00
76694;BME280;69667;52.136;5.424;2023-11-19T06:24:05;100809.72;;;9.62;100.00
76694;BME280;69667;52.136;5.424;2023-11-19T06:26:34;100808.00;;;9.61;100.00
76694;BME280;69667;52.136;5.424;2023-11-19T06:29:02;100813.50;;;9.59;100.00
76694;BME280;69667;52.136;5.424;2023-11-19T06:31:30;100816.84;;;9.63;100.00
76694;BME280;69667;52.136;5.424;2023-11-19T06:33:58;100821.34;;;9.62;100.00
76694;BME280;69667;52.136;5.424;2023-11-19T06:36:27;100826.97;;;9.59;100.00
76694;BME280;69667;52.136;5.424;2023-11-19T06:38:55;100836.88;;;9.59;100.00
76694;BME280;69667;52.136;5.424;2023-11-19T06:41:23;100824.16;;;9.61;100.00
76694;BME280;69667;52.136;5.424;2023-11-19T06:43:51;100826.97;;;9.59;100.00
76694;BME280;69667;52.136;5.424;2023-11-19T06:46:20;100830.84;;;9.55;100.00
76694;BME280;69667;52.136;5.424;2023-11-19T06:48:48;100839.91;;;9.54;100.00
76694;BME280;69667;52.136;5.424;2023-11-19T06:51:16;100845.41;;;9.53;100.00
76694;BME280;69667;52.136;5.424;2023-11-19T06:53:44;100839.16;;;9.52;100.00
76694;BME280;69667;52.136;5.424;2023-11-19T06:56:23;100831.06;;;9.52;100.00
76694;BME280;69667;52.136;5.424;2023-11-19T06:58:51;100839.03;;;9.54;100.00
76694;BME280;69667;52.136;5.424;2023-11-19T07:01:20;100844.31;;;9.55;100.00
76694;BME280;69667;52.136;5.424;2023-11-19T07:03:49;100839.25;;;9.63;100.00
76694;BME280;69667;52.136;5.424;2023-11-19T07:06:18;100853.47;;;9.65;100.00
76694;BME280;69667;52.136;5.424;2023-11-19T07:09:00;100851.44;;;9.69;100.00
76694;BME280;69667;52.136;5.424;2023-11-19T07:11:40;100847.75;;;9.70;100.00
76694;BME280;69667;52.136;5.424;2023-11-19T07:14:09;100853.88;;;9.72;100.00
76694;BME280;69667;52.136;5.424;2023-11-19T07:16:38;100857.56;;;9.71;100.00
76694;BME280;69667;52.136;5.424;2023-11-19T07:19:06;100858.53;;;9.70;100.00
76694;BME280;69667;52.136;5.424;2023-11-19T07:21:35;100855.63;;;9.73;100.00
76694;BME280;69667;52.136;5.424;2023-11-19T07:24:07;100859.81;;;9.77;100.00
76694;BME280;69667;52.136;5.424;2023-11-19T07:26:36;100863.38;;;9.77;100.00
76694;BME280;69667;52.136;5.424;2023-11-19T07:29:04;100858.41;;;9.84;100.00
76694;BME280;69667;52.136;5.424;2023-11-19T07:31:35;100876.72;;;9.91;100.00
76694;BME280;69667;52.136;5.424;2023-11-19T07:34:04;100875.66;;;9.94;100.00
76694;BME280;69667;52.136;5.424;2023-11-19T07:36:33;100868.97;;;9.99;100.00
76694;BME280;69667;52.136;5.424;2023-11-19T07:39:04;100871.78;;;9.98;100.00
76694;BME280;69667;52.136;5.424;2023-11-19T07:41:32;100876.19;;;9.99;100.00
76694;BME280;69667;52.136;5.424;2023-11-19T07:44:05;100870.03;;;9.97;100.00
76694;BME280;69667;52.136;5.424;2023-11-19T07:46:34;100874.56;;;9.96;100.00
76694;BME280;69667;52.136;5.424;2023-11-19T07:49:02;100876.94;;;10.01;100.00
76694;BME280;69667;52.136;5.424;2023-11-19T07:51:30;100882.22;;;10.02;100.00
76694;BME280;69667;52.136;5.424;2023-11-19T07:53:58;100876.47;;;10.07;100.00
76694;BME280;69667;52.136;5.424;2023-11-19T07:56:27;100870.78;;;10.11;100.00
76694;BME280;69667;52.136;5.424;2023-11-19T07:58:55;100869.81;;;10.12;100.00
76694;BME280;69667;52.136;5.424;2023-11-19T08:01:23;100867.00;;;10.14;100.00
76694;BME280;69667;52.136;5.424;2023-11-19T08:03:51;100864.09;;;10.17;100.00
76694;BME280;69667;52.136;5.424;2023-11-19T08:06:23;100865.38;;;10.24;100.00
76694;BME280;69667;52.136;5.424;2023-11-19T08:08:51;100860.94;;;10.23;100.00
76694;BME280;69667;52.136;5.424;2023-11-19T08:11:19;100859.97;;;10.24;100.00
76694;BME280;69667;52.136;5.424;2023-11-19T08:13:47;100871.41;;;10.28;100.00
76694;BME280;69667;52.136;5.424;2023-11-19T08:16:16;100871.28;;;10.29;100.00
76694;BME280;69667;52.136;5.424;2023-11-19T08:18:44;100870.19;;;10.32;100.00
76694;BME280;69667;52.136;5.424;2023-11-19T08:21:12;100876.22;;;10.35;100.00
76694;BME280;69667;52.136;5.424;2023-11-19T08:23:41;100875.53;;;10.44;100.00
76694;BME280;69667;52.136;5.424;2023-11-19T08:26:09;100866.03;;;10.51;100.00
76694;BME280;69667;52.136;5.424;2023-11-19T08:28:38;100867.34;;;10.46;100.00
76694;BME280;69667;52.136;5.424;2023-11-19T08:31:06;100859.13;;;10.47;100.00
76694;BME280;69667;52.136;5.424;2023-11-19T08:33:34;100877.09;;;10.59;100.00
76694;BME280;69667;52.136;5.424;2023-11-19T08:36:03;100875.31;;;10.71;100.00
76694;BME280;69667;52.136;5.424;2023-11-19T08:38:32;100875.69;;;10.66;100.00
76694;BME280;69667;52.136;5.424;2023-11-19T08:41:00;100880.84;;;10.69;100.00
76694;BME280;69667;52.136;5.424;2023-11-19T08:43:28;100881.00;;;10.79;100.00
76694;BME280;69667;52.136;5.424;2023-11-19T08:45:58;100880.31;;;10.88;100.00
76694;BME280;69667;52.136;5.424;2023-11-19T08:48:26;100874.19;;;10.97;100.00
76694;BME280;69667;52.136;5.424;2023-11-19T08:50:54;100879.88;;;11.05;100.00
76694;BME280;69667;52.136;5.424;2023-11-19T08:53:23;100882.47;;;11.06;100.00
76694;BME280;69667;52.136;5.424;2023-11-19T08:55:51;100887.97;;;11.05;100.00
76694;BME280;69667;52.136;5.424;2023-11-19T08:58:19;100880.22;;;11.00;100.00
76694;BME280;69667;52.136;5.424;2023-11-19T09:00:48;100879.53;;;11.09;100.00
76694;BME280;69667;52.136;5.424;2023-11-19T09:03:17;100878.75;;;11.31;100.00
76694;BME280;69667;52.136;5.424;2023-11-19T09:05:46;100882.44;;;11.41;100.00
76694;BME280;69667;52.136;5.424;2023-11-19T09:08:14;100886.53;;;11.58;100.00
76694;BME280;69667;52.136;5.424;2023-11-19T09:10:42;100877.53;;;11.57;100.00
76694;BME280;69667;52.136;5.424;2023-11-19T09:13:11;100891.19;;;11.56;100.00
76694;BME280;69667;52.136;5.424;2023-11-19T09:15:39;100872.38;;;11.54;100.00
76694;BME280;69667;52.136;5.424;2023-11-19T09:18:09;100883.94;;;11.56;100.00
76694;BME280;69667;52.136;5.424;2023-11-19T09:20:38;100886.56;;;11.69;100.00
76694;BME280;69667;52.136;5.424;2023-11-19T09:23:06;100881.50;;;11.53;100.00
76694;BME280;69667;52.136;5.424;2023-11-19T09:25:36;100880.63;;;11.41;100.00
76694;BME280;69667;52.136;5.424;2023-11-19T09:28:07;100887.47;;;11.34;100.00
76694;BME280;69667;52.136;5.424;2023-11-19T09:30:36;100875.78;;;11.34;100.00
76694;BME280;69667;52.136;5.424;2023-11-19T09:33:05;100880.13;;;11.36;100.00
76694;BME280;69667;52.136;5.424;2023-11-19T09:35:33;100873.72;;;11.37;100.00
76694;BME280;69667;52.136;5.424;2023-11-19T09:38:02;100879.75;;;11.41;100.00
76694;BME280;69667;52.136;5.424;2023-11-19T09:40:32;100876.16;;;11.40;100.00
76694;BME280;69667;52.136;5.424;2023-11-19T09:43:01;100876.63;;;11.69;100.00
76694;BME280;69667;52.136;5.424;2023-11-19T09:45:32;100869.94;;;12.28;100.00
76694;BME280;69667;52.136;5.424;2023-11-19T09:48:06;100879.72;;;11.98;100.00
76694;BME280;69667;52.136;5.424;2023-11-19T09:50:35;100880.31;;;12.01;100.00
76694;BME280;69667;52.136;5.424;2023-11-19T09:53:03;100881.44;;;11.88;100.00
76694;BME280;69667;52.136;5.424;2023-11-19T09:55:32;100872.06;;;11.81;100.00
76694;BME280;69667;52.136;5.424;2023-11-19T09:58:01;100865.78;;;11.80;100.00
76694;BME280;69667;52.136;5.424;2023-11-19T10:00:30;100867.66;;;11.91;100.00
76694;BME280;69667;52.136;5.424;2023-11-19T10:02:58;100867.91;;;11.88;100.00
76694;BME280;69667;52.136;5.424;2023-11-19T10:05:27;100869.25;;;11.93;100.00
76694;BME280;69667;52.136;5.424;2023-11-19T10:07:56;100852.88;;;12.28;100.00
76694;BME280;69667;52.136;5.424;2023-11-19T10:10:24;100871.31;;;12.12;100.00
76694;BME280;69667;52.136;5.424;2023-11-19T10:12:52;100850.13;;;12.39;100.00
76694;BME280;69667;52.136;5.424;2023-11-19T10:15:24;100856.81;;;12.98;100.00
76694;BME280;69667;52.136;5.424;2023-11-19T10:17:57;100848.06;;;13.47;100.00
76694;BME280;69667;52.136;5.424;2023-11-19T10:20:26;100835.22;;;14.19;100.00
76694;BME280;69667;52.136;5.424;2023-11-19T10:22:55;100834.22;;;14.50;100.00
76694;BME280;69667;52.136;5.424;2023-11-19T10:25:25;100827.34;;;16.86;100.00
76694;BME280;69667;52.136;5.424;2023-11-19T10:27:55;100818.16;;;16.87;100.00
76694;BME280;69667;52.136;5.424;2023-11-19T10:30:25;100828.47;;;15.39;100.00
76694;BME280;69667;52.136;5.424;2023-11-19T10:33:13;100826.84;;;16.01;100.00
76694;BME280;69667;52.136;5.424;2023-11-19T10:35:55;100826.28;;;15.98;100.00
76694;BME280;69667;52.136;5.424;2023-11-19T10:38:29;100825.44;;;16.69;100.00
76694;BME280;69667;52.136;5.424;2023-11-19T10:40:58;100828.09;;;17.14;100.00
76694;BME280;69667;52.136;5.424;2023-11-19T10:43:26;100823.34;;;16.63;100.00
76694;BME280;69667;52.136;5.424;2023-11-19T10:46:09;100824.84;;;15.57;100.00
76694;BME280;69667;52.136;5.424;2023-11-19T10:48:38;100820.50;;;14.89;100.00
76694;BME280;69667;52.136;5.424;2023-11-19T10:51:07;100828.78;;;14.97;100.00
76694;BME280;69667;52.136;5.424;2023-11-19T10:53:36;100828.22;;;14.84;100.00
76694;BME280;69667;52.136;5.424;2023-11-19T10:56:08;100830.06;;;14.84;100.00
76694;BME280;69667;52.136;5.424;2023-11-19T10:58:44;100811.94;;;14.75;100.00
76694;BME280;69667;52.136;5.424;2023-11-19T11:01:18;100824.66;;;14.65;100.00
76694;BME280;69667;52.136;5.424;2023-11-19T11:03:51;100819.16;;;14.36;100.00
76694;BME280;69667;52.136;5.424;2023-11-19T11:06:22;100824.88;;;14.33;100.00
76694;BME280;69667;52.136;5.424;2023-11-19T11:08:51;100832.31;;;14.41;100.00
76694;BME280;69667;52.136;5.424;2023-11-19T11:11:19;100840.66;;;14.19;100.00
76694;BME280;69667;52.136;5.424;2023-11-19T11:13:53;100838.91;;;13.98;100.00
76694;BME280;69667;52.136;5.424;2023-11-19T11:16:23;100830.84;;;13.87;100.00
76694;BME280;69667;52.136;5.424;2023-11-19T11:18:53;100833.28;;;13.90;100.00
76694;BME280;69667;52.136;5.424;2023-11-19T11:21:24;100832.88;;;13.95;100.00
76694;BME280;69667;52.136;5.424;2023-11-19T11:30:17;100821.06;;;13.45;100.00
76694;BME280;69667;52.136;5.424;2023-11-19T11:33:06;100820.56;;;13.31;100.00
76694;BME280;69667;52.136;5.424;2023-11-19T11:38:30;100815.94;;;13.52;100.00
76694;BME280;69667;52.136;5.424;2023-11-19T11:41:23;100829.47;;;13.42;100.00
76694;BME280;69667;52.136;5.424;2023-11-19T11:43:56;100827.25;;;13.27;100.00
76694;BME280;69667;52.136;5.424;2023-11-19T11:49:05;100821.88;;;13.16;100.00
76694;BME280;69667;52.136;5.424;2023-11-19T11:54:26;100819.22;;;13.46;100.00
76694;BME280;69667;52.136;5.424;2023-11-19T12:02:15;100816.88;;;13.32;100.00
76694;BME280;69667;52.136;5.424;2023-11-19T12:04:48;100811.97;;;13.26;100.00
76694;BME280;69667;52.136;5.424;2023-11-19T12:07:20;100810.25;;;13.25;100.00
76694;BME280;69667;52.136;5.424;2023-11-19T12:10:13;100807.34;;;13.17;100.00
76694;BME280;69667;52.136;5.424;2023-11-19T12:12:40;100806.75;;;13.13;100.00
76694;BME280;69667;52.136;5.424;2023-11-19T12:15:09;100802.63;;;12.98;100.00
76694;BME280;69667;52.136;5.424;2023-11-19T12:17:42;100807.19;;;12.98;100.00
76694;BME280;69667;52.136;5.424;2023-11-19T12:20:13;100802.59;;;13.09;100.00
76694;BME280;69667;52.136;5.424;2023-11-19T12:22:42;100798.28;;;13.27;100.00
76694;BME280;69667;52.136;5.424;2023-11-19T12:25:12;100797.47;;;13.36;100.00
76694;BME280;69667;52.136;5.424;2023-11-19T12:27:46;100799.56;;;13.23;100.00
76694;BME280;69667;52.136;5.424;2023-11-19T12:30:24;100807.94;;;13.20;100.00
76694;BME280;69667;52.136;5.424;2023-11-19T12:32:54;100806.91;;;13.12;100.00
76694;BME280;69667;52.136;5.424;2023-11-19T12:35:23;100808.75;;;13.00;100.00
76694;BME280;69667;52.136;5.424;2023-11-19T12:37:51;100803.13;;;12.92;100.00
76694;BME280;69667;52.136;5.424;2023-11-19T12:40:22;100798.72;;;12.91;100.00
76694;BME280;69667;52.136;5.424;2023-11-19T12:42:52;100805.63;;;12.84;100.00
76694;BME280;69667;52.136;5.424;2023-11-19T12:45:21;100805.78;;;12.83;100.00
76694;BME280;69667;52.136;5.424;2023-11-19T12:48:04;100800.97;;;12.86;100.00
76694;BME280;69667;52.136;5.424;2023-11-19T12:51:01;100808.69;;;12.91;100.00
76694;BME280;69667;52.136;5.424;2023-11-19T12:53:50;100812.41;;;12.90;100.00
76694;BME280;69667;52.136;5.424;2023-11-19T12:56:22;100807.47;;;12.84;100.00
76694;BME280;69667;52.136;5.424;2023-11-19T12:58:50;100806.38;;;12.86;100.00
76694;BME280;69667;52.136;5.424;2023-11-19T13:01:20;100805.38;;;12.87;100.00
76694;BME280;69667;52.136;5.424;2023-11-19T13:03:49;100799.13;;;12.87;100.00
76694;BME280;69667;52.136;5.424;2023-11-19T13:06:19;100803.66;;;12.86;100.00
76694;BME280;69667;52.136;5.424;2023-11-19T13:08:49;100803.06;;;12.83;100.00
76694;BME280;69667;52.136;5.424;2023-11-19T13:11:35;100799.88;;;12.77;100.00
76694;BME280;69667;52.136;5.424;2023-11-19T13:14:04;100794.75;;;12.74;100.00
76694;BME280;69667;52.136;5.424;2023-11-19T13:16:37;100797.59;;;12.73;100.00